sensor_id;sensor_type;location;lat;lon;timestamp;P1;durP1;ratioP1;P2;durP2;ratioP2
37151;SDS011;23046;50.112;8.952;2023-12-20T00:00:01;2.20;;;2.00;;
37151;SDS011;23046;50.112;8.952;2023-12-20T00:00:11;2.20;;;2.00;;
37151;SDS011;23046;50.112;8.952;2023-12-20T00:00:22;2.33;;;2.07;;
37151;SDS011;23046;50.112;8.952;2023-12-20T00:00:32;2.37;;;2.00;;
37151;SDS011;23046;50.112;8.952;2023-12-20T00:00:43;2.78;;;2.10;;
37151;SDS011;23046;50.112;8.952;2023-12-20T00:00:53;2.85;;;2.15;;
37151;SDS011;23046;50.112;8.952;2023-12-20T00:01:03;3.17;;;2.20;;
37151;SDS011;23046;50.112;8.952;2023-12-20T00:01:14;2.93;;;2.13;;
37151;SDS011;23046;50.112;8.952;2023-12-20T00:01:24;3.40;;;2.10;;
37151;SDS011;23046;50.112;8.952;2023-12-20T00:01:34;3.10;;;2.00;;
37151;SDS011;23046;50.112;8.952;2023-12-20T00:01:44;3.50;;;2.00;;
37151;SDS011;23046;50.112;8.952;2023-12-20T00:01:54;2.70;;;1.90;;
37151;SDS011;23046;50.112;8.952;2023-12-20T00:02:05;2.50;;;1.93;;
37151;SDS011;23046;50.112;8.952;2023-12-20T00:02:15;2.20;;;2.00;;
37151;SDS011;23046;50.112;8.952;2023-12-20T00:02:25;3.08;;;2.33;;
37151;SDS011;23046;50.112;8.952;2023-12-20T00:02:36;3.13;;;2.30;;
37151;SDS011;23046;50.112;8.952;2023-12-20T00:02:46;2.87;;;2.10;;
37151;SDS011;23046;50.112;8.952;2023-12-20T00:02:57;2.50;;;1.83;;
37151;SDS011;23046;50.112;8.952;2023-12-20T00:03:07;2.37;;;1.80;;
37151;SDS011;23046;50.112;8.952;2023-12-20T00:03:17;2.77;;;2.00;;
37151;SDS011;23046;50.112;8.952;2023-12-20T00:03:27;2.60;;;2.20;;
37151;SDS011;23046;50.112;8.952;2023-12-20T00:03:37;2.47;;;2.20;;
37151;SDS011;23046;50.112;8.952;2023-12-20T00:03:47;2.27;;;2.07;;
37151;SDS011;23046;50.112;8.952;2023-12-20T00:03:58;2.10;;;1.90;;
37151;SDS011;23046;50.112;8.952;2023-12-20T00:04:08;2.33;;;1.90;;
37151;SDS011;23046;50.112;8.952;2023-12-20T00:04:18;2.67;;;1.90;;
37151;SDS011;23046;50.112;8.952;2023-12-20T00:04:28;2.60;;;1.90;;
37151;SDS011;23046;50.112;8.952;2023-12-20T00:04:38;2.40;;;2.00;;
37151;SDS011;23046;50.112;8.952;2023-12-20T00:04:49;2.20;;;2.00;;
37151;SDS011;23046;50.112;8.952;2023-12-20T00:04:59;2.58;;;2.08;;
37151;SDS011;23046;50.112;8.952;2023-12-20T00:05:10;2.77;;;2.10;;
37151;SDS011;23046;50.112;8.952;2023-12-20T00:05:20;2.37;;;2.00;;
37151;SDS011;23046;50.112;8.952;2023-12-20T00:05:30;2.23;;;1.97;;
37151;SDS011;23046;50.112;8.952;2023-12-20T00:05:42;2.00;;;1.80;;
37151;SDS011;23046;50.112;8.952;2023-12-20T00:05:52;2.17;;;1.80;;
37151;SDS011;23046;50.112;8.952;2023-12-20T00:06:02;2.77;;;1.93;;
37151;SDS011;23046;50.112;8.952;2023-12-20T00:06:13;2.83;;;2.03;;
37151;SDS011;23046;50.112;8.952;2023-12-20T00:06:23;2.70;;;1.97;;
37151;SDS011;23046;50.112;8.952;2023-12-20T00:06:33;2.27;;;1.93;;
37151;SDS011;23046;50.112;8.952;2023-12-20T00:06:43;3.00;;;2.13;;
37151;SDS011;23046;50.112;8.952;2023-12-20T00:06:54;3.20;;;2.20;;
37151;SDS011;23046;50.112;8.952;2023-12-20T00:07:04;2.97;;;2.07;;
37151;SDS011;23046;50.112;8.952;2023-12-20T00:07:14;3.03;;;2.00;;
37151;SDS011;23046;50.112;8.952;2023-12-20T00:07:24;2.80;;;1.90;;
37151;SDS011;23046;50.112;8.952;2023-12-20T00:07:34;3.10;;;1.97;;
37151;SDS011;23046;50.112;8.952;2023-12-20T00:07:44;2.57;;;1.83;;
37151;SDS011;23046;50.112;8.952;2023-12-20T00:07:55;2.60;;;2.08;;
37151;SDS011;23046;50.112;8.952;2023-12-20T00:08:05;2.50;;;2.30;;
37151;SDS011;23046;50.112;8.952;2023-12-20T00:08:15;2.67;;;2.37;;
37151;SDS011;23046;50.112;8.952;2023-12-20T00:08:26;3.70;;;2.33;;
37151;SDS011;23046;50.112;8.952;2023-12-20T00:08:36;3.75;;;2.30;;
37151;SDS011;23046;50.112;8.952;2023-12-20T00:08:46;3.23;;;2.10;;
37151;SDS011;23046;50.112;8.952;2023-12-20T00:08:56;2.77;;;2.10;;
37151;SDS011;23046;50.112;8.952;2023-12-20T00:09:07;2.58;;;2.00;;
37151;SDS011;23046;50.112;8.952;2023-12-20T00:09:18;2.65;;;2.10;;
37151;SDS011;23046;50.112;8.952;2023-12-20T00:09:28;2.17;;;1.93;;
37151;SDS011;23046;50.112;8.952;2023-12-20T00:09:38;2.10;;;1.83;;
37151;SDS011;23046;50.112;8.952;2023-12-20T00:09:48;2.70;;;2.00;;
37151;SDS011;23046;50.112;8.952;2023-12-20T00:09:58;2.90;;;1.93;;
37151;SDS011;23046;50.112;8.952;2023-12-20T00:10:09;3.03;;;2.10;;
37151;SDS011;23046;50.112;8.952;2023-12-20T00:10:19;2.85;;;2.00;;
37151;SDS011;23046;50.112;8.952;2023-12-20T00:10:29;2.63;;;1.97;;
37151;SDS011;23046;50.112;8.952;2023-12-20T00:10:39;2.80;;;2.00;;
37151;SDS011;23046;50.112;8.952;2023-12-20T00:10:50;2.27;;;2.07;;
37151;SDS011;23046;50.112;8.952;2023-12-20T00:11:00;2.50;;;2.28;;
37151;SDS011;23046;50.112;8.952;2023-12-20T00:11:10;2.60;;;2.20;;
37151;SDS011;23046;50.112;8.952;2023-12-20T00:11:20;2.60;;;1.93;;
37151;SDS011;23046;50.112;8.952;2023-12-20T00:11:30;2.23;;;1.70;;
37151;SDS011;23046;50.112;8.952;2023-12-20T00:11:40;1.87;;;1.70;;
37151;SDS011;23046;50.112;8.952;2023-12-20T00:11:52;1.90;;;1.70;;
37151;SDS011;23046;50.112;8.952;2023-12-20T00:12:02;2.03;;;1.83;;
37151;SDS011;23046;50.112;8.952;2023-12-20T00:12:12;2.03;;;1.83;;
37151;SDS011;23046;50.112;8.952;2023-12-20T00:12:22;2.37;;;2.00;;
37151;SDS011;23046;50.112;8.952;2023-12-20T00:12:33;2.20;;;1.83;;
37151;SDS011;23046;50.112;8.952;2023-12-20T00:12:43;2.23;;;2.00;;
37151;SDS011;23046;50.112;8.952;2023-12-20T00:12:53;2.35;;;2.10;;
37151;SDS011;23046;50.112;8.952;2023-12-20T00:13:03;2.70;;;2.30;;
37151;SDS011;23046;50.112;8.952;2023-12-20T00:13:13;2.67;;;2.20;;
37151;SDS011;23046;50.112;8.952;2023-12-20T00:13:24;2.47;;;2.17;;
37151;SDS011;23046;50.112;8.952;2023-12-20T00:13:34;2.47;;;2.17;;
37151;SDS011;23046;50.112;8.952;2023-12-20T00:13:44;2.45;;;2.10;;
37151;SDS011;23046;50.112;8.952;2023-12-20T00:13:54;2.03;;;1.80;;
37151;SDS011;23046;50.112;8.952;2023-12-20T00:14:04;2.70;;;1.83;;
37151;SDS011;23046;50.112;8.952;2023-12-20T00:14:14;3.00;;;1.87;;
37151;SDS011;23046;50.112;8.952;2023-12-20T00:14:25;3.57;;;2.10;;
37151;SDS011;23046;50.112;8.952;2023-12-20T00:14:35;2.63;;;2.07;;
37151;SDS011;23046;50.112;8.952;2023-12-20T00:14:45;2.65;;;2.13;;
37151;SDS011;23046;50.112;8.952;2023-12-20T00:14:55;2.50;;;2.00;;
37151;SDS011;23046;50.112;8.952;2023-12-20T00:15:06;3.00;;;1.93;;
37151;SDS011;23046;50.112;8.952;2023-12-20T00:15:16;2.53;;;1.88;;
37151;SDS011;23046;50.112;8.952;2023-12-20T00:15:26;2.73;;;2.00;;
37151;SDS011;23046;50.112;8.952;2023-12-20T00:15:36;3.17;;;2.00;;
37151;SDS011;23046;50.112;8.952;2023-12-20T00:15:47;3.43;;;2.23;;
37151;SDS011;23046;50.112;8.952;2023-12-20T00:15:57;2.73;;;2.10;;
37151;SDS011;23046;50.112;8.952;2023-12-20T00:16:07;2.55;;;2.08;;
37151;SDS011;23046;50.112;8.952;2023-12-20T00:16:17;2.80;;;2.00;;
37151;SDS011;23046;50.112;8.952;2023-12-20T00:16:28;2.90;;;1.97;;
37151;SDS011;23046;50.112;8.952;2023-12-20T00:16:38;3.60;;;2.10;;
37151;SDS011;23046;50.112;8.952;2023-12-20T00:16:48;3.50;;;2.00;;
37151;SDS011;23046;50.112;8.952;2023-12-20T00:16:58;3.60;;;2.08;;
37151;SDS011;23046;50.112;8.952;2023-12-20T00:17:08;2.27;;;2.00;;
37151;SDS011;23046;50.112;8.952;2023-12-20T00:17:19;2.17;;;1.97;;
37151;SDS011;23046;50.112;8.952;2023-12-20T00:17:30;2.20;;;1.90;;
37151;SDS011;23046;50.112;8.952;2023-12-20T00:17:40;2.60;;;1.90;;
37151;SDS011;23046;50.112;8.952;2023-12-20T00:17:50;3.43;;;2.10;;
37151;SDS011;23046;50.112;8.952;2023-12-20T00:18:00;3.38;;;2.15;;
37151;SDS011;23046;50.112;8.952;2023-12-20T00:18:11;2.67;;;2.07;;
37151;SDS011;23046;50.112;8.952;2023-12-20T00:18:21;2.40;;;2.03;;
37151;SDS011;23046;50.112;8.952;2023-12-20T00:18:31;2.50;;;2.00;;
37151;SDS011;23046;50.112;8.952;2023-12-20T00:18:41;2.70;;;2.07;;
37151;SDS011;23046;50.112;8.952;2023-12-20T00:18:51;2.17;;;1.98;;
37151;SDS011;23046;50.112;8.952;2023-12-20T00:19:02;2.20;;;2.00;;
37151;SDS011;23046;50.112;8.952;2023-12-20T00:19:12;1.97;;;1.83;;
37151;SDS011;23046;50.112;8.952;2023-12-20T00:19:22;2.13;;;1.90;;
37151;SDS011;23046;50.112;8.952;2023-12-20T00:19:32;2.08;;;1.88;;
37151;SDS011;23046;50.112;8.952;2023-12-20T00:19:42;2.23;;;2.00;;
37151;SDS011;23046;50.112;8.952;2023-12-20T00:19:53;2.27;;;2.07;;
37151;SDS011;23046;50.112;8.952;2023-12-20T00:20:03;2.27;;;2.00;;
37151;SDS011;23046;50.112;8.952;2023-12-20T00:20:13;2.20;;;2.00;;
37151;SDS011;23046;50.112;8.952;2023-12-20T00:20:23;2.25;;;2.00;;
37151;SDS011;23046;50.112;8.952;2023-12-20T00:20:33;2.60;;;2.00;;
37151;SDS011;23046;50.112;8.952;2023-12-20T00:20:44;2.70;;;1.87;;
37151;SDS011;23046;50.112;8.952;2023-12-20T00:20:54;2.50;;;1.83;;
37151;SDS011;23046;50.112;8.952;2023-12-20T00:21:04;2.90;;;1.93;;
37151;SDS011;23046;50.112;8.952;2023-12-20T00:21:14;2.70;;;2.10;;
37151;SDS011;23046;50.112;8.952;2023-12-20T00:21:24;2.78;;;2.17;;
37151;SDS011;23046;50.112;8.952;2023-12-20T00:21:35;2.23;;;2.03;;
37151;SDS011;23046;50.112;8.952;2023-12-20T00:21:45;2.03;;;1.87;;
37151;SDS011;23046;50.112;8.952;2023-12-20T00:21:55;1.83;;;1.73;;
37151;SDS011;23046;50.112;8.952;2023-12-20T00:22:05;1.90;;;1.80;;
37151;SDS011;23046;50.112;8.952;2023-12-20T00:22:15;2.10;;;1.95;;
37151;SDS011;23046;50.112;8.952;2023-12-20T00:22:26;2.20;;;2.00;;
37151;SDS011;23046;50.112;8.952;2023-12-20T00:22:36;1.93;;;1.83;;
37151;SDS011;23046;50.112;8.952;2023-12-20T00:22:46;2.03;;;1.83;;
37151;SDS011;23046;50.112;8.952;2023-12-20T00:22:56;1.87;;;1.67;;
37151;SDS011;23046;50.112;8.952;2023-12-20T00:23:07;2.05;;;1.85;;
37151;SDS011;23046;50.112;8.952;2023-12-20T00:23:18;2.15;;;1.88;;
37151;SDS011;23046;50.112;8.952;2023-12-20T00:23:28;2.50;;;2.00;;
37151;SDS011;23046;50.112;8.952;2023-12-20T00:23:38;2.93;;;2.07;;
37151;SDS011;23046;50.112;8.952;2023-12-20T00:23:48;2.80;;;2.20;;
37151;SDS011;23046;50.112;8.952;2023-12-20T00:23:58;2.23;;;2.00;;
37151;SDS011;23046;50.112;8.952;2023-12-20T00:24:09;2.13;;;1.92;;
37151;SDS011;23046;50.112;8.952;2023-12-20T00:24:19;2.00;;;1.80;;
37151;SDS011;23046;50.112;8.952;2023-12-20T00:24:30;2.28;;;2.03;;
37151;SDS011;23046;50.112;8.952;2023-12-20T00:24:40;2.50;;;2.10;;
37151;SDS011;23046;50.112;8.952;2023-12-20T00:24:50;2.63;;;2.07;;
37151;SDS011;23046;50.112;8.952;2023-12-20T00:25:01;2.40;;;2.00;;
37151;SDS011;23046;50.112;8.952;2023-12-20T00:25:11;2.43;;;1.90;;
37151;SDS011;23046;50.112;8.952;2023-12-20T00:25:21;2.93;;;1.90;;
37151;SDS011;23046;50.112;8.952;2023-12-20T00:25:31;2.93;;;1.90;;
37151;SDS011;23046;50.112;8.952;2023-12-20T00:25:41;3.17;;;2.17;;
37151;SDS011;23046;50.112;8.952;2023-12-20T00:25:52;2.75;;;2.17;;
37151;SDS011;23046;50.112;8.952;2023-12-20T00:26:02;2.93;;;2.20;;
37151;SDS011;23046;50.112;8.952;2023-12-20T00:26:12;2.57;;;2.07;;
37151;SDS011;23046;50.112;8.952;2023-12-20T00:26:22;2.60;;;2.10;;
37151;SDS011;23046;50.112;8.952;2023-12-20T00:26:33;2.75;;;2.10;;
37151;SDS011;23046;50.112;8.952;2023-12-20T00:26:43;2.70;;;2.10;;
37151;SDS011;23046;50.112;8.952;2023-12-20T00:26:53;2.73;;;2.20;;
37151;SDS011;23046;50.112;8.952;2023-12-20T00:27:03;2.53;;;2.23;;
37151;SDS011;23046;50.112;8.952;2023-12-20T00:27:13;2.50;;;2.23;;
37151;SDS011;23046;50.112;8.952;2023-12-20T00:27:24;2.67;;;2.10;;
37151;SDS011;23046;50.112;8.952;2023-12-20T00:27:34;2.65;;;2.13;;
37151;SDS011;23046;50.112;8.952;2023-12-20T00:27:44;2.83;;;2.20;;
37151;SDS011;23046;50.112;8.952;2023-12-20T00:27:54;2.70;;;2.17;;
37151;SDS011;23046;50.112;8.952;2023-12-20T00:28:05;2.80;;;1.97;;
37151;SDS011;23046;50.112;8.952;2023-12-20T00:28:16;2.33;;;1.88;;
37151;SDS011;23046;50.112;8.952;2023-12-20T00:28:26;2.33;;;1.80;;
37151;SDS011;23046;50.112;8.952;2023-12-20T00:28:36;2.30;;;1.80;;
37151;SDS011;23046;50.112;8.952;2023-12-20T00:28:47;2.70;;;1.97;;
37151;SDS011;23046;50.112;8.952;2023-12-20T00:28:57;2.35;;;1.90;;
37151;SDS011;23046;50.112;8.952;2023-12-20T00:29:07;2.30;;;2.00;;
37151;SDS011;23046;50.112;8.952;2023-12-20T00:29:17;1.80;;;1.70;;
37151;SDS011;23046;50.112;8.952;2023-12-20T00:29:28;1.80;;;1.70;;
37151;SDS011;23046;50.112;8.952;2023-12-20T00:29:38;2.67;;;1.73;;
37151;SDS011;23046;50.112;8.952;2023-12-20T00:29:48;3.00;;;1.93;;
37151;SDS011;23046;50.112;8.952;2023-12-20T00:30:00;3.00;;;2.03;;
37151;SDS011;23046;50.112;8.952;2023-12-20T00:30:10;2.17;;;1.97;;
37151;SDS011;23046;50.112;8.952;2023-12-20T00:30:20;2.20;;;2.00;;
37151;SDS011;23046;50.112;8.952;2023-12-20T00:30:30;2.23;;;2.03;;
37151;SDS011;23046;50.112;8.952;2023-12-20T00:30:41;2.37;;;2.10;;
37151;SDS011;23046;50.112;8.952;2023-12-20T00:30:51;2.50;;;2.10;;
37151;SDS011;23046;50.112;8.952;2023-12-20T00:31:01;2.40;;;2.00;;
37151;SDS011;23046;50.112;8.952;2023-12-20T00:31:11;2.53;;;1.90;;
37151;SDS011;23046;50.112;8.952;2023-12-20T00:31:22;2.63;;;1.97;;
37151;SDS011;23046;50.112;8.952;2023-12-20T00:31:32;3.00;;;1.97;;
37151;SDS011;23046;50.112;8.952;2023-12-20T00:31:42;3.05;;;2.10;;
37151;SDS011;23046;50.112;8.952;2023-12-20T00:31:52;2.63;;;1.83;;
37151;SDS011;23046;50.112;8.952;2023-12-20T00:32:03;2.23;;;1.87;;
37151;SDS011;23046;50.112;8.952;2023-12-20T00:32:13;1.93;;;1.80;;
37151;SDS011;23046;50.112;8.952;2023-12-20T00:32:23;2.05;;;1.88;;
37151;SDS011;23046;50.112;8.952;2023-12-20T00:32:34;1.97;;;1.83;;
37151;SDS011;23046;50.112;8.952;2023-12-20T00:32:44;2.13;;;1.90;;
37151;SDS011;23046;50.112;8.952;2023-12-20T00:32:56;2.10;;;1.90;;
37151;SDS011;23046;50.112;8.952;2023-12-20T00:33:06;2.28;;;1.92;;
37151;SDS011;23046;50.112;8.952;2023-12-20T00:33:16;2.57;;;1.97;;
37151;SDS011;23046;50.112;8.952;2023-12-20T00:33:27;2.53;;;2.00;;
37151;SDS011;23046;50.112;8.952;2023-12-20T00:33:37;2.87;;;2.10;;
37151;SDS011;23046;50.112;8.952;2023-12-20T00:33:47;2.77;;;2.10;;
37151;SDS011;23046;50.112;8.952;2023-12-20T00:33:57;2.63;;;2.10;;
37151;SDS011;23046;50.112;8.952;2023-12-20T00:34:07;2.20;;;2.00;;
37151;SDS011;23046;50.112;8.952;2023-12-20T00:34:18;2.00;;;1.90;;
37151;SDS011;23046;50.112;8.952;2023-12-20T00:34:28;2.20;;;2.00;;
37151;SDS011;23046;50.112;8.952;2023-12-20T00:34:38;2.27;;;2.00;;
37151;SDS011;23046;50.112;8.952;2023-12-20T00:34:48;2.57;;;2.00;;
37151;SDS011;23046;50.112;8.952;2023-12-20T00:34:58;2.60;;;1.90;;
37151;SDS011;23046;50.112;8.952;2023-12-20T00:35:08;2.80;;;1.73;;
37151;SDS011;23046;50.112;8.952;2023-12-20T00:35:19;2.67;;;1.73;;
37151;SDS011;23046;50.112;8.952;2023-12-20T00:35:29;2.63;;;1.80;;
37151;SDS011;23046;50.112;8.952;2023-12-20T00:35:39;3.20;;;2.07;;
37151;SDS011;23046;50.112;8.952;2023-12-20T00:35:49;3.13;;;2.20;;
37151;SDS011;23046;50.112;8.952;2023-12-20T00:36:00;3.57;;;2.10;;
37151;SDS011;23046;50.112;8.952;2023-12-20T00:36:10;2.90;;;2.10;;
37151;SDS011;23046;50.112;8.952;2023-12-20T00:36:20;3.50;;;2.00;;
37151;SDS011;23046;50.112;8.952;2023-12-20T00:36:30;2.87;;;2.03;;
37151;SDS011;23046;50.112;8.952;2023-12-20T00:36:40;2.50;;;1.98;;
37151;SDS011;23046;50.112;8.952;2023-12-20T00:36:50;2.20;;;2.00;;
37151;SDS011;23046;50.112;8.952;2023-12-20T00:37:01;2.30;;;2.10;;
37151;SDS011;23046;50.112;8.952;2023-12-20T00:37:11;2.97;;;2.00;;
37151;SDS011;23046;50.112;8.952;2023-12-20T00:37:21;3.10;;;1.80;;
37151;SDS011;23046;50.112;8.952;2023-12-20T00:37:31;2.90;;;1.70;;
37151;SDS011;23046;50.112;8.952;2023-12-20T00:37:44;2.13;;;1.63;;
37151;SDS011;23046;50.112;8.952;2023-12-20T00:37:54;1.90;;;1.70;;
37151;SDS011;23046;50.112;8.952;2023-12-20T00:38:05;2.23;;;1.90;;
37151;SDS011;23046;50.112;8.952;2023-12-20T00:38:17;2.97;;;2.00;;
37151;SDS011;23046;50.112;8.952;2023-12-20T00:38:27;3.10;;;1.97;;
37151;SDS011;23046;50.112;8.952;2023-12-20T00:38:37;3.07;;;1.90;;
37151;SDS011;23046;50.112;8.952;2023-12-20T00:38:47;2.67;;;1.90;;
37151;SDS011;23046;50.112;8.952;2023-12-20T00:38:58;2.53;;;1.90;;
37151;SDS011;23046;50.112;8.952;2023-12-20T00:39:08;2.40;;;1.90;;
37151;SDS011;23046;50.112;8.952;2023-12-20T00:39:18;2.13;;;1.93;;
37151;SDS011;23046;50.112;8.952;2023-12-20T00:39:28;2.10;;;1.90;;
37151;SDS011;23046;50.112;8.952;2023-12-20T00:39:38;2.10;;;1.90;;
37151;SDS011;23046;50.112;8.952;2023-12-20T00:39:49;2.07;;;1.87;;
37151;SDS011;23046;50.112;8.952;2023-12-20T00:39:59;2.10;;;1.90;;
37151;SDS011;23046;50.112;8.952;2023-12-20T00:40:09;2.20;;;2.00;;
37151;SDS011;23046;50.112;8.952;2023-12-20T00:40:19;2.23;;;2.03;;
37151;SDS011;23046;50.112;8.952;2023-12-20T00:40:30;2.40;;;2.10;;
37151;SDS011;23046;50.112;8.952;2023-12-20T00:40:40;2.10;;;1.90;;
37151;SDS011;23046;50.112;8.952;2023-12-20T00:40:51;2.03;;;1.80;;
37151;SDS011;23046;50.112;8.952;2023-12-20T00:41:01;2.00;;;1.70;;
37151;SDS011;23046;50.112;8.952;2023-12-20T00:41:11;2.30;;;1.90;;
37151;SDS011;23046;50.112;8.952;2023-12-20T00:41:21;2.60;;;2.00;;
37151;SDS011;23046;50.112;8.952;2023-12-20T00:41:31;2.20;;;2.00;;
37151;SDS011;23046;50.112;8.952;2023-12-20T00:41:42;2.25;;;2.05;;
37151;SDS011;23046;50.112;8.952;2023-12-20T00:41:52;2.27;;;2.07;;
37151;SDS011;23046;50.112;8.952;2023-12-20T00:42:02;3.30;;;2.30;;
37151;SDS011;23046;50.112;8.952;2023-12-20T00:42:12;3.07;;;2.20;;
37151;SDS011;23046;50.112;8.952;2023-12-20T00:42:22;3.37;;;2.17;;
37151;SDS011;23046;50.112;8.952;2023-12-20T00:42:33;2.22;;;2.00;;
37151;SDS011;23046;50.112;8.952;2023-12-20T00:42:43;2.50;;;2.00;;
37151;SDS011;23046;50.112;8.952;2023-12-20T00:42:53;2.27;;;1.97;;
37151;SDS011;23046;50.112;8.952;2023-12-20T00:43:03;2.37;;;1.83;;
37151;SDS011;23046;50.112;8.952;2023-12-20T00:43:13;2.13;;;1.87;;
37151;SDS011;23046;50.112;8.952;2023-12-20T00:43:24;2.13;;;1.92;;
37151;SDS011;23046;50.112;8.952;2023-12-20T00:43:34;2.23;;;2.00;;
37151;SDS011;23046;50.112;8.952;2023-12-20T00:43:44;2.80;;;1.97;;
37151;SDS011;23046;50.112;8.952;2023-12-20T00:43:54;3.07;;;1.90;;
37151;SDS011;23046;50.112;8.952;2023-12-20T00:44:05;3.10;;;2.00;;
37151;SDS011;23046;50.112;8.952;2023-12-20T00:44:15;2.55;;;2.10;;
37151;SDS011;23046;50.112;8.952;2023-12-20T00:44:25;2.30;;;1.90;;
37151;SDS011;23046;50.112;8.952;2023-12-20T00:44:35;2.83;;;1.80;;
37151;SDS011;23046;50.112;8.952;2023-12-20T00:44:45;2.97;;;1.83;;
37151;SDS011;23046;50.112;8.952;2023-12-20T00:44:55;2.70;;;1.90;;
37151;SDS011;23046;50.112;8.952;2023-12-20T00:45:06;1.97;;;1.73;;
37151;SDS011;23046;50.112;8.952;2023-12-20T00:45:16;1.90;;;1.75;;
37151;SDS011;23046;50.112;8.952;2023-12-20T00:45:26;2.10;;;1.87;;
37151;SDS011;23046;50.112;8.952;2023-12-20T00:45:36;2.07;;;1.87;;
37151;SDS011;23046;50.112;8.952;2023-12-20T00:45:47;2.27;;;1.90;;
37151;SDS011;23046;50.112;8.952;2023-12-20T00:45:57;2.80;;;1.80;;
37151;SDS011;23046;50.112;8.952;2023-12-20T00:46:07;2.88;;;1.70;;
37151;SDS011;23046;50.112;8.952;2023-12-20T00:46:17;2.60;;;1.80;;
37151;SDS011;23046;50.112;8.952;2023-12-20T00:46:28;1.90;;;1.70;;
37151;SDS011;23046;50.112;8.952;2023-12-20T00:46:38;2.35;;;2.00;;
37151;SDS011;23046;50.112;8.952;2023-12-20T00:46:48;2.23;;;1.97;;
37151;SDS011;23046;50.112;8.952;2023-12-20T00:46:58;2.60;;;2.10;;
37151;SDS011;23046;50.112;8.952;2023-12-20T00:47:08;2.13;;;1.93;;
37151;SDS011;23046;50.112;8.952;2023-12-20T00:47:19;2.20;;;2.00;;
37151;SDS011;23046;50.112;8.952;2023-12-20T00:47:29;2.20;;;2.00;;
37151;SDS011;23046;50.112;8.952;2023-12-20T00:47:39;2.77;;;2.00;;
37151;SDS011;23046;50.112;8.952;2023-12-20T00:47:50;3.23;;;2.20;;
37151;SDS011;23046;50.112;8.952;2023-12-20T00:48:00;4.17;;;2.17;;
37151;SDS011;23046;50.112;8.952;2023-12-20T00:48:10;3.75;;;2.20;;
37151;SDS011;23046;50.112;8.952;2023-12-20T00:48:20;2.80;;;1.87;;
37151;SDS011;23046;50.112;8.952;2023-12-20T00:48:31;2.00;;;1.80;;
37151;SDS011;23046;50.112;8.952;2023-12-20T00:48:41;1.73;;;1.63;;
37151;SDS011;23046;50.112;8.952;2023-12-20T00:48:52;2.08;;;1.88;;
37151;SDS011;23046;50.112;8.952;2023-12-20T00:49:02;2.42;;;1.90;;
37151;SDS011;23046;50.112;8.952;2023-12-20T00:49:12;2.67;;;2.00;;
37151;SDS011;23046;50.112;8.952;2023-12-20T00:49:22;2.50;;;1.90;;
37151;SDS011;23046;50.112;8.952;2023-12-20T00:49:33;2.27;;;1.90;;
37151;SDS011;23046;50.112;8.952;2023-12-20T00:49:43;2.40;;;1.90;;
37151;SDS011;23046;50.112;8.952;2023-12-20T00:49:53;2.60;;;1.87;;
37151;SDS011;23046;50.112;8.952;2023-12-20T00:50:03;2.28;;;1.92;;
37151;SDS011;23046;50.112;8.952;2023-12-20T00:50:13;2.33;;;1.90;;
37151;SDS011;23046;50.112;8.952;2023-12-20T00:50:24;2.27;;;1.90;;
37151;SDS011;23046;50.112;8.952;2023-12-20T00:50:34;2.40;;;1.90;;
37151;SDS011;23046;50.112;8.952;2023-12-20T00:50:44;2.17;;;1.80;;
37151;SDS011;23046;50.112;8.952;2023-12-20T00:50:54;2.03;;;1.80;;
37151;SDS011;23046;50.112;8.952;2023-12-20T00:51:04;2.00;;;1.80;;
37151;SDS011;23046;50.112;8.952;2023-12-20T00:51:15;2.00;;;1.80;;
37151;SDS011;23046;50.112;8.952;2023-12-20T00:51:25;2.00;;;1.83;;
37151;SDS011;23046;50.112;8.952;2023-12-20T00:51:35;2.30;;;1.90;;
37151;SDS011;23046;50.112;8.952;2023-12-20T00:51:45;2.28;;;2.00;;
37151;SDS011;23046;50.112;8.952;2023-12-20T00:51:56;2.28;;;2.03;;
37151;SDS011;23046;50.112;8.952;2023-12-20T00:52:07;1.90;;;1.80;;
37151;SDS011;23046;50.112;8.952;2023-12-20T00:52:17;1.90;;;1.80;;
37151;SDS011;23046;50.112;8.952;2023-12-20T00:52:27;1.80;;;1.70;;
37151;SDS011;23046;50.112;8.952;2023-12-20T00:52:37;2.00;;;1.80;;
37151;SDS011;23046;50.112;8.952;2023-12-20T00:52:48;2.13;;;1.87;;
37151;SDS011;23046;50.112;8.952;2023-12-20T00:52:58;2.00;;;1.80;;
37151;SDS011;23046;50.112;8.952;2023-12-20T00:53:08;2.03;;;1.67;;
37151;SDS011;23046;50.112;8.952;2023-12-20T00:53:18;2.53;;;1.70;;
37151;SDS011;23046;50.112;8.952;2023-12-20T00:53:28;2.37;;;1.70;;
37151;SDS011;23046;50.112;8.952;2023-12-20T00:53:39;2.47;;;1.80;;
37151;SDS011;23046;50.112;8.952;2023-12-20T00:53:49;2.00;;;1.80;;
37151;SDS011;23046;50.112;8.952;2023-12-20T00:54:00;2.10;;;1.80;;
37151;SDS011;23046;50.112;8.952;2023-12-20T00:54:10;2.20;;;1.90;;
37151;SDS011;23046;50.112;8.952;2023-12-20T00:54:20;2.60;;;1.93;;
37151;SDS011;23046;50.112;8.952;2023-12-20T00:54:30;2.83;;;2.00;;
37151;SDS011;23046;50.112;8.952;2023-12-20T00:54:41;2.65;;;2.00;;
37151;SDS011;23046;50.112;8.952;2023-12-20T00:54:51;2.30;;;2.00;;
37151;SDS011;23046;50.112;8.952;2023-12-20T00:55:02;3.30;;;1.90;;
37151;SDS011;23046;50.112;8.952;2023-12-20T00:55:13;3.50;;;1.92;;
37151;SDS011;23046;50.112;8.952;2023-12-20T00:55:24;3.47;;;2.00;;
37151;SDS011;23046;50.112;8.952;2023-12-20T00:55:34;2.20;;;2.00;;
37151;SDS011;23046;50.112;8.952;2023-12-20T00:55:44;1.83;;;1.73;;
37151;SDS011;23046;50.112;8.952;2023-12-20T00:55:55;1.90;;;1.70;;
37151;SDS011;23046;50.112;8.952;2023-12-20T00:56:05;1.97;;;1.70;;
37151;SDS011;23046;50.112;8.952;2023-12-20T00:56:16;2.45;;;2.00;;
37151;SDS011;23046;50.112;8.952;2023-12-20T00:56:26;2.17;;;1.87;;
37151;SDS011;23046;50.112;8.952;2023-12-20T00:56:36;2.30;;;1.70;;
37151;SDS011;23046;50.112;8.952;2023-12-20T00:56:47;2.30;;;1.60;;
37151;SDS011;23046;50.112;8.952;2023-12-20T00:56:57;2.43;;;1.70;;
37151;SDS011;23046;50.112;8.952;2023-12-20T00:57:07;2.23;;;1.90;;
37151;SDS011;23046;50.112;8.952;2023-12-20T00:57:17;2.50;;;1.90;;
37151;SDS011;23046;50.112;8.952;2023-12-20T00:57:27;2.23;;;1.80;;
37151;SDS011;23046;50.112;8.952;2023-12-20T00:57:37;2.08;;;1.77;;
37151;SDS011;23046;50.112;8.952;2023-12-20T00:57:48;2.37;;;1.80;;
37151;SDS011;23046;50.112;8.952;2023-12-20T00:57:58;2.90;;;1.90;;
37151;SDS011;23046;50.112;8.952;2023-12-20T00:58:09;3.17;;;1.92;;
37151;SDS011;23046;50.112;8.952;2023-12-20T00:58:19;2.33;;;1.93;;
37151;SDS011;23046;50.112;8.952;2023-12-20T00:58:29;2.00;;;1.70;;
37151;SDS011;23046;50.112;8.952;2023-12-20T00:58:40;1.85;;;1.70;;
37151;SDS011;23046;50.112;8.952;2023-12-20T00:58:50;1.97;;;1.73;;
37151;SDS011;23046;50.112;8.952;2023-12-20T00:59:00;2.23;;;2.00;;
37151;SDS011;23046;50.112;8.952;2023-12-20T00:59:10;2.30;;;2.10;;
37151;SDS011;23046;50.112;8.952;2023-12-20T00:59:21;2.17;;;1.98;;
37151;SDS011;23046;50.112;8.952;2023-12-20T00:59:31;1.80;;;1.70;;
37151;SDS011;23046;50.112;8.952;2023-12-20T00:59:41;2.13;;;1.63;;
37151;SDS011;23046;50.112;8.952;2023-12-20T00:59:51;2.33;;;1.87;;
37151;SDS011;23046;50.112;8.952;2023-12-20T01:00:01;2.53;;;2.00;;
37151;SDS011;23046;50.112;8.952;2023-12-20T01:00:12;2.25;;;2.05;;
37151;SDS011;23046;50.112;8.952;2023-12-20T01:00:23;2.28;;;1.95;;
37151;SDS011;23046;50.112;8.952;2023-12-20T01:00:33;2.33;;;1.90;;
37151;SDS011;23046;50.112;8.952;2023-12-20T01:00:43;2.77;;;1.80;;
37151;SDS011;23046;50.112;8.952;2023-12-20T01:00:54;2.37;;;1.80;;
37151;SDS011;23046;50.112;8.952;2023-12-20T01:01:04;2.20;;;1.80;;
37151;SDS011;23046;50.112;8.952;2023-12-20T01:01:15;2.00;;;1.83;;
37151;SDS011;23046;50.112;8.952;2023-12-20T01:01:25;1.98;;;1.88;;
37151;SDS011;23046;50.112;8.952;2023-12-20T01:01:35;1.97;;;1.87;;
37151;SDS011;23046;50.112;8.952;2023-12-20T01:01:45;2.07;;;1.87;;
37151;SDS011;23046;50.112;8.952;2023-12-20T01:01:55;2.20;;;1.90;;